Time;durP1;ratioP1;P1;durP2;ratioP2;P2;SDS_P1;SDS_P2;PMS_P1;PMS_P2;Temp;Humidity;BMP_temperature;BMP_pressure;BME280_temperature;BME280_humidity;BME280_pressure;Samples;Min_cycle;Max_cycle;Signal;HPM_P1;HPM_P2
2023/06/18 00:01:05;;;;;;;3.42;2.10;;;22.30;33.40;;;;;;2478524;55;21405;-75
2023/06/18 00:03:32;;;;;;;3.65;2.33;;;22.30;33.40;;;;;;2252164;56;20957;-77
2023/06/18 00:06:03;;;;;;;3.95;2.17;;;22.30;33.50;;;;;;2478753;55;21036;-75
2023/06/18 00:08:29;;;;;;;4.32;2.42;;;22.30;33.70;;;;;;2478449;55;20956;-74
2023/06/18 00:10:56;;;;;;;3.62;2.25;;;22.30;33.60;;;;;;2478554;55;20985;-76
2023/06/18 00:13:23;;;;;;;3.35;2.15;;;22.30;33.70;;;;;;2478177;55;21060;-77
2023/06/18 00:15:50;;;;;;;3.92;1.85;;;22.30;33.80;;;;;;2477656;55;20949;-76
2023/06/18 00:18:17;;;;;;;3.62;1.80;;;22.20;33.70;;;;;;2463807;55;21032;-76
2023/06/18 00:20:43;;;;;;;3.28;2.20;;;22.30;33.90;;;;;;2464084;55;20951;-76
2023/06/18 00:23:10;;;;;;;3.80;2.47;;;22.20;33.90;;;;;;2478711;55;21041;-76
2023/06/18 00:25:36;;;;;;;3.62;2.05;;;22.20;33.90;;;;;;2478369;55;21000;-76
2023/06/18 00:28:03;;;;;;;3.70;2.00;;;22.20;34.00;;;;;;2476111;55;20937;-77
2023/06/18 00:30:31;;;;;;;4.22;2.15;;;22.20;34.00;;;;;;2477912;55;21757;-75
2023/06/18 00:32:59;;;;;;;3.70;2.30;;;22.10;34.00;;;;;;2478250;55;20929;-77
2023/06/18 00:35:31;;;;;;;4.10;2.35;;;22.10;34.10;;;;;;2478478;55;20941;-75
2023/06/18 00:38:03;;;;;;;4.50;2.20;;;22.10;34.30;;;;;;2472374;55;20991;-75
2023/06/18 00:40:31;;;;;;;3.90;2.43;;;22.10;34.30;;;;;;2467714;55;21024;-75
2023/06/18 00:42:58;;;;;;;3.87;2.35;;;22.10;34.40;;;;;;2478266;55;20993;-75
2023/06/18 00:45:28;;;;;;;4.32;2.40;;;22.00;34.40;;;;;;2477149;55;20949;-74
2023/06/18 00:47:57;;;;;;;4.12;2.55;;;22.00;34.60;;;;;;2242905;56;21060;-75
2023/06/18 00:50:35;;;;;;;3.87;2.40;;;22.00;34.70;;;;;;2478149;55;21004;-75
2023/06/18 00:53:13;;;;;;;4.25;2.53;;;22.00;35.00;;;;;;2479524;55;20945;-77
2023/06/18 00:55:41;;;;;;;4.03;2.53;;;21.90;34.80;;;;;;2479368;55;21037;-75
2023/06/18 00:58:08;;;;;;;4.37;2.85;;;21.90;34.90;;;;;;2479372;55;21064;-77
2023/06/18 01:00:35;;;;;;;4.00;2.67;;;21.90;35.00;;;;;;2479501;55;21032;-75
2023/06/18 01:03:05;;;;;;;4.12;2.62;;;21.90;35.10;;;;;;2480201;55;20973;-76
2023/06/18 01:05:33;;;;;;;3.58;2.30;;;21.80;35.10;;;;;;2479548;55;20940;-76
2023/06/18 01:08:05;;;;;;;4.43;2.92;;;21.80;35.20;;;;;;2479649;55;20952;-75
2023/06/18 01:10:39;;;;;;;4.10;2.58;;;21.80;35.40;;;;;;2479423;55;21504;-74
2023/06/18 01:13:07;;;;;;;5.28;3.10;;;21.80;35.60;;;;;;2479909;55;21361;-76
2023/06/18 01:15:34;;;;;;;4.43;2.67;;;21.80;35.50;;;;;;2478995;55;20917;-75
2023/06/18 01:18:07;;;;;;;4.00;2.67;;;21.70;35.50;;;;;;2479177;55;21121;-75
2023/06/18 01:20:40;;;;;;;3.72;2.30;;;21.70;35.60;;;;;;2479063;55;20965;-75
2023/06/18 01:23:27;;;;;;;4.47;2.47;;;21.70;35.80;;;;;;2479526;55;21052;-77
2023/06/18 01:25:57;;;;;;;4.12;2.67;;;21.60;36.20;;;;;;2478833;55;20990;-75
2023/06/18 01:28:24;;;;;;;4.15;2.65;;;21.60;35.80;;;;;;2472874;55;21491;-75
2023/06/18 01:30:53;;;;;;;5.53;2.80;;;21.60;35.90;;;;;;2441552;56;20990;-77
2023/06/18 01:33:21;;;;;;;4.22;2.72;;;21.50;35.80;;;;;;2472056;55;21025;-76
2023/06/18 01:35:52;;;;;;;4.10;2.70;;;21.50;35.90;;;;;;2478212;55;20956;-76
2023/06/18 01:38:38;;;;;;;3.90;2.70;;;21.50;36.10;;;;;;2473991;55;20956;-74
2023/06/18 01:41:11;;;;;;;4.18;2.37;;;21.50;36.50;;;;;;2466543;55;20941;-75
2023/06/18 01:43:58;;;;;;;5.10;2.60;;;21.40;36.20;;;;;;2439321;56;21615;-75
2023/06/18 01:46:26;;;;;;;3.92;2.78;;;21.40;36.60;;;;;;2477719;55;21036;-75
2023/06/18 01:48:59;;;;;;;5.20;2.47;;;21.40;36.20;;;;;;2478252;55;20937;-75
2023/06/18 01:51:27;;;;;;;4.05;2.62;;;21.40;36.40;;;;;;2472600;55;21001;-77
2023/06/18 01:53:56;;;;;;;4.70;2.78;;;21.30;36.20;;;;;;2468892;55;21021;-75
2023/06/18 01:56:28;;;;;;;4.20;2.53;;;21.30;36.40;;;;;;2468818;55;21035;-75
2023/06/18 01:58:55;;;;;;;5.07;3.35;;;21.20;36.50;;;;;;2247487;56;20934;-77
2023/06/18 02:01:23;;;;;;;4.20;3.03;;;21.20;36.90;;;;;;2251784;56;20941;-76
2023/06/18 02:03:51;;;;;;;4.55;2.97;;;21.20;37.00;;;;;;2478241;55;21004;-76
2023/06/18 02:06:18;;;;;;;4.68;3.00;;;21.10;36.90;;;;;;2479013;55;21045;-76
2023/06/18 02:08:47;;;;;;;4.43;2.95;;;21.20;37.10;;;;;;2478232;55;21004;-77
2023/06/18 02:11:13;;;;;;;4.97;3.10;;;21.10;37.10;;;;;;2478731;55;20961;-77
2023/06/18 02:13:40;;;;;;;5.25;3.03;;;21.10;37.10;;;;;;2251636;56;21029;-77
2023/06/18 02:16:07;;;;;;;3.85;2.60;;;21.10;37.20;;;;;;2478996;55;20977;-76
2023/06/18 02:18:36;;;;;;;4.25;2.78;;;21.10;37.20;;;;;;2478409;55;20945;-75
2023/06/18 02:21:03;;;;;;;4.20;2.90;;;21.00;37.30;;;;;;2478607;55;20933;-76
2023/06/18 02:23:30;;;;;;;4.78;2.70;;;21.00;37.30;;;;;;2478323;55;20921;-75
2023/06/18 02:25:57;;;;;;;3.80;2.60;;;21.00;37.30;;;;;;2251791;56;20941;-77
2023/06/18 02:28:24;;;;;;;4.72;3.10;;;21.00;37.50;;;;;;2476695;55;20964;-75
2023/06/18 02:30:50;;;;;;;4.60;3.08;;;20.90;37.50;;;;;;2464387;56;20931;-74
2023/06/18 02:33:18;;;;;;;4.43;2.92;;;20.90;37.60;;;;;;2478795;55;20969;-75
2023/06/18 02:35:44;;;;;;;4.18;2.80;;;20.90;37.60;;;;;;2478028;55;20945;-74
2023/06/18 02:38:14;;;;;;;4.75;3.03;;;20.80;37.60;;;;;;2252238;56;20936;-75
2023/06/18 02:40:41;;;;;;;4.20;2.75;;;20.80;37.70;;;;;;2478452;55;20953;-75
2023/06/18 02:43:08;;;;;;;5.22;3.35;;;20.80;37.80;;;;;;2479139;55;20964;-77
2023/06/18 02:45:36;;;;;;;5.05;3.53;;;20.80;37.90;;;;;;2471875;55;20955;-77
2023/06/18 02:48:03;;;;;;;5.18;3.28;;;20.70;37.80;;;;;;2244866;56;21079;-75
2023/06/18 02:50:29;;;;;;;4.32;2.78;;;20.70;37.90;;;;;;2477809;55;20921;-77
2023/06/18 02:52:55;;;;;;;4.25;2.75;;;20.70;37.90;;;;;;2473983;55;21064;-77
2023/06/18 02:55:23;;;;;;;4.68;3.05;;;20.60;37.90;;;;;;2467657;55;20945;-73
2023/06/18 02:57:50;;;;;;;4.37;2.95;;;20.60;38.10;;;;;;2461719;56;21817;-75
2023/06/18 03:00:19;;;;;;;4.68;2.80;;;20.60;38.20;;;;;;2448341;55;21675;-77
2023/06/18 03:02:51;;;;;;;4.85;2.83;;;20.50;38.20;;;;;;2476406;55;20937;-73
2023/06/18 03:05:17;;;;;;;4.80;2.85;;;20.50;38.20;;;;;;2479094;55;21506;-74
2023/06/18 03:07:46;;;;;;;4.18;2.60;;;20.50;38.30;;;;;;2474429;55;21075;-75
2023/06/18 03:10:16;;;;;;;4.90;2.80;;;20.40;38.30;;;;;;2436949;55;20953;-75
2023/06/18 03:12:42;;;;;;;4.35;2.83;;;20.40;38.40;;;;;;2252289;56;20993;-74
2023/06/18 03:15:09;;;;;;;4.20;2.85;;;20.50;38.60;;;;;;2479055;55;20941;-74
2023/06/18 03:17:36;;;;;;;4.68;2.90;;;20.40;38.60;;;;;;2477596;55;20984;-74
2023/06/18 03:20:03;;;;;;;3.95;2.62;;;20.30;38.50;;;;;;2478289;55;21033;-75
2023/06/18 03:22:29;;;;;;;4.43;2.97;;;20.30;38.60;;;;;;2478100;55;20948;-76
2023/06/18 03:25:00;;;;;;;4.82;2.80;;;20.30;38.60;;;;;;2477116;55;21690;-75
2023/06/18 03:27:29;;;;;;;3.60;2.47;;;20.20;38.70;;;;;;2477847;55;20979;-75
2023/06/18 03:29:55;;;;;;;4.75;2.70;;;20.20;38.70;;;;;;2477781;55;20997;-74
2023/06/18 03:32:23;;;;;;;4.90;2.83;;;20.10;38.80;;;;;;2251760;56;21004;-76
2023/06/18 03:34:50;;;;;;;4.87;2.87;;;20.10;38.90;;;;;;2477953;55;20949;-75
2023/06/18 03:37:17;;;;;;;4.55;2.60;;;20.10;38.90;;;;;;2478422;55;20944;-76
2023/06/18 03:39:44;;;;;;;4.55;2.80;;;20.00;38.90;;;;;;2478097;55;20948;-75
2023/06/18 03:42:13;;;;;;;4.68;2.85;;;20.00;39.00;;;;;;2478968;55;20941;-76
2023/06/18 03:44:39;;;;;;;4.87;2.87;;;20.00;39.10;;;;;;2478035;55;21287;-75
2023/06/18 03:47:07;;;;;;;4.65;2.90;;;20.00;39.20;;;;;;2478650;55;21728;-76
2023/06/18 03:49:33;;;;;;;5.28;3.03;;;19.90;39.20;;;;;;2478246;55;20988;-75
2023/06/18 03:52:00;;;;;;;4.35;2.80;;;19.90;39.30;;;;;;2478811;55;21037;-75
2023/06/18 03:54:31;;;;;;;4.28;2.70;;;19.90;39.30;;;;;;2468742;55;21847;-75
2023/06/18 03:57:08;;;;;;;4.18;2.65;;;19.80;39.30;;;;;;2473392;55;20968;-74
2023/06/18 03:59:35;;;;;;;4.95;2.80;;;19.80;39.60;;;;;;2478301;55;20972;-73
2023/06/18 04:02:02;;;;;;;4.72;3.10;;;19.80;39.40;;;;;;2478361;55;20949;-74
2023/06/18 04:04:28;;;;;;;4.65;2.80;;;19.60;39.40;;;;;;2478404;55;20925;-77
2023/06/18 04:06:58;;;;;;;5.18;3.05;;;19.70;39.60;;;;;;2478604;55;21417;-75
2023/06/18 04:09:25;;;;;;;4.82;2.80;;;19.70;39.70;;;;;;2479031;55;20937;-74
2023/06/18 04:11:53;;;;;;;4.85;3.05;;;19.70;39.80;;;;;;2478587;55;21347;-77
2023/06/18 04:14:22;;;;;;;4.15;2.70;;;19.70;39.90;;;;;;2478218;55;20917;-75
2023/06/18 04:16:48;;;;;;;4.53;3.03;;;19.60;39.90;;;;;;2477310;55;20960;-75
2023/06/18 04:19:15;;;;;;;4.20;2.78;;;19.60;40.00;;;;;;2448741;56;20998;-75
2023/06/18 04:21:42;;;;;;;5.35;3.05;;;19.60;40.10;;;;;;2459177;55;21370;-75
2023/06/18 04:24:08;;;;;;;4.30;2.50;;;19.60;40.20;;;;;;2468094;55;21039;-75
2023/06/18 04:26:34;;;;;;;4.35;2.78;;;19.60;40.30;;;;;;2438695;56;20950;-75
2023/06/18 04:29:02;;;;;;;4.82;2.72;;;19.60;40.30;;;;;;2249938;56;21029;-75
2023/06/18 04:31:28;;;;;;;4.05;2.47;;;19.60;40.40;;;;;;2478730;55;20965;-75
2023/06/18 04:33:55;;;;;;;5.65;2.60;;;19.60;40.40;;;;;;2478570;55;21024;-75
2023/06/18 04:36:21;;;;;;;3.53;2.35;;;19.50;40.40;;;;;;2478576;55;21012;-75
2023/06/18 04:38:48;;;;;;;3.55;2.30;;;19.60;40.60;;;;;;2477773;55;20952;-78
2023/06/18 04:41:15;;;;;;;4.30;2.60;;;19.50;40.60;;;;;;2467794;55;21038;-77
2023/06/18 04:43:41;;;;;;;4.05;2.35;;;19.60;40.70;;;;;;2474129;55;20989;-75
2023/06/18 04:46:08;;;;;;;4.53;2.90;;;19.60;40.80;;;;;;2478495;55;20980;-76
2023/06/18 04:48:37;;;;;;;4.47;2.72;;;19.60;41.00;;;;;;2478839;55;21711;-75
2023/06/18 04:51:05;;;;;;;4.87;2.90;;;19.60;41.00;;;;;;2251912;56;21023;-77
2023/06/18 04:53:31;;;;;;;4.37;2.60;;;19.60;41.10;;;;;;2252454;56;21053;-76
2023/06/18 04:56:00;;;;;;;4.37;2.78;;;19.60;41.10;;;;;;2478758;55;21556;-75
2023/06/18 04:58:27;;;;;;;4.82;2.87;;;19.60;41.20;;;;;;2478418;55;20924;-77
2023/06/18 05:00:59;;;;;;;4.20;2.72;;;19.70;41.40;;;;;;2478435;55;20945;-77
2023/06/18 05:03:27;;;;;;;4.10;2.67;;;19.70;41.50;;;;;;2250984;56;20991;-77
2023/06/18 05:05:54;;;;;;;4.20;2.42;;;19.70;41.50;;;;;;2243800;56;20973;-76
2023/06/18 05:08:21;;;;;;;4.80;3.10;;;19.70;41.50;;;;;;2479068;55;21016;-75
2023/06/18 05:10:49;;;;;;;4.10;2.70;;;19.80;41.70;;;;;;2477703;55;22102;-75
2023/06/18 05:13:20;;;;;;;4.53;2.85;;;19.80;41.70;;;;;;2478117;55;20940;-77
2023/06/18 05:15:47;;;;;;;4.10;2.58;;;19.80;41.80;;;;;;2477839;55;20953;-75
2023/06/18 05:18:13;;;;;;;5.05;2.53;;;19.90;41.90;;;;;;2252137;56;21001;-74
2023/06/18 05:20:40;;;;;;;4.32;2.65;;;19.90;41.90;;;;;;2477424;55;20980;-75
2023/06/18 05:23:08;;;;;;;4.00;2.62;;;20.00;42.10;;;;;;2478791;55;21026;-75
2023/06/18 05:25:37;;;;;;;4.30;2.97;;;20.00;42.20;;;;;;2478524;55;20941;-76
2023/06/18 05:28:04;;;;;;;5.70;2.95;;;20.10;42.50;;;;;;2251936;56;20952;-75
2023/06/18 05:30:32;;;;;;;4.65;2.90;;;20.10;42.40;;;;;;2252332;56;21001;-76
2023/06/18 05:32:58;;;;;;;4.90;3.10;;;20.20;42.50;;;;;;2252034;56;20968;-75
2023/06/18 05:35:25;;;;;;;4.93;3.33;;;20.20;42.60;;;;;;2478077;55;21013;-75
2023/06/18 05:37:52;;;;;;;6.90;3.83;;;20.20;42.60;;;;;;2478424;55;21064;-76
2023/06/18 05:40:20;;;;;;;5.65;4.00;;;20.30;42.80;;;;;;2254315;56;20972;-76
2023/06/18 05:42:46;;;;;;;5.87;3.70;;;20.40;43.00;;;;;;2462373;55;20996;-75
2023/06/18 05:45:13;;;;;;;5.07;3.83;;;20.40;43.00;;;;;;2467418;55;21042;-74
2023/06/18 05:47:42;;;;;;;6.43;4.35;;;20.50;43.10;;;;;;2247778;56;20985;-75
2023/06/18 05:50:12;;;;;;;7.18;3.95;;;20.50;43.20;;;;;;2477524;55;20973;-76
2023/06/18 05:52:45;;;;;;;5.90;3.78;;;20.60;43.40;;;;;;2438677;56;20976;-75
2023/06/18 05:55:11;;;;;;;5.10;3.53;;;20.60;43.40;;;;;;2478006;55;21088;-75
2023/06/18 05:57:38;;;;;;;5.28;3.37;;;20.60;43.00;;;;;;2477023;55;21728;-75
2023/06/18 06:00:05;;;;;;;4.45;2.97;;;20.70;43.00;;;;;;2251537;56;21281;-76
2023/06/18 06:02:32;;;;;;;4.53;3.22;;;20.80;43.00;;;;;;2477743;55;21401;-75
2023/06/18 06:04:59;;;;;;;4.93;3.50;;;20.90;42.90;;;;;;2475988;55;20980;-75
2023/06/18 06:07:25;;;;;;;6.95;3.40;;;20.90;42.80;;;;;;2436272;55;21856;-77
2023/06/18 06:09:55;;;;;;;4.53;3.25;;;21.00;42.90;;;;;;2476168;55;21033;-77
2023/06/18 06:12:23;;;;;;;4.60;3.17;;;21.10;42.90;;;;;;2477974;55;20937;-75
2023/06/18 06:14:50;;;;;;;5.07;3.08;;;21.20;43.00;;;;;;2478280;55;21394;-76
2023/06/18 06:17:21;;;;;;;4.45;3.10;;;21.20;43.00;;;;;;2478582;55;21386;-75
2023/06/18 06:19:51;;;;;;;4.57;2.72;;;21.30;43.20;;;;;;2478139;55;21017;-76
2023/06/18 06:22:17;;;;;;;4.68;3.20;;;21.40;43.10;;;;;;2479086;55;20925;-75
2023/06/18 06:24:45;;;;;;;4.60;3.05;;;21.40;43.10;;;;;;2477354;55;21457;-77
2023/06/18 06:27:13;;;;;;;4.93;3.40;;;21.50;43.10;;;;;;2478649;55;20988;-75
2023/06/18 06:29:39;;;;;;;5.65;3.83;;;21.60;43.40;;;;;;2468060;55;21095;-76
2023/06/18 06:32:06;;;;;;;5.53;3.40;;;21.70;43.50;;;;;;2466573;56;21005;-75
2023/06/18 06:34:33;;;;;;;4.03;2.90;;;21.70;44.20;;;;;;2478611;55;20953;-74
2023/06/18 06:37:02;;;;;;;5.70;3.72;;;21.80;43.50;;;;;;2478770;55;20945;-76
2023/06/18 06:39:29;;;;;;;6.37;3.62;;;21.90;43.70;;;;;;2478549;55;20932;-75
2023/06/18 06:41:56;;;;;;;7.93;3.50;;;22.00;43.90;;;;;;2476987;55;21307;-75
2023/06/18 06:44:25;;;;;;;4.93;3.60;;;22.00;43.80;;;;;;2478215;55;20964;-76
2023/06/18 06:46:52;;;;;;;5.97;3.60;;;22.10;43.70;;;;;;2476807;55;21884;-77
2023/06/18 06:49:19;;;;;;;5.43;3.85;;;22.20;43.80;;;;;;2477708;55;21020;-76
2023/06/18 06:51:47;;;;;;;4.70;3.20;;;22.30;43.80;;;;;;2443931;56;21444;-77
2023/06/18 06:54:14;;;;;;;4.78;3.17;;;22.40;43.70;;;;;;2469655;55;20940;-75
2023/06/18 06:56:43;;;;;;;5.75;3.53;;;22.40;43.40;;;;;;2477812;55;21024;-76
2023/06/18 06:59:12;;;;;;;5.47;3.33;;;22.50;43.30;;;;;;2439278;56;20965;-75
2023/06/18 07:01:43;;;;;;;5.37;3.50;;;22.60;43.30;;;;;;2477257;55;20972;-76
2023/06/18 07:04:11;;;;;;;5.43;3.65;;;22.70;43.20;;;;;;2467818;55;21396;-76
2023/06/18 07:06:41;;;;;;;4.90;3.45;;;22.80;43.80;;;;;;2472824;55;20977;-74
2023/06/18 07:09:07;;;;;;;5.37;3.85;;;22.90;43.10;;;;;;2477067;55;20973;-76
2023/06/18 07:11:40;;;;;;;4.85;3.30;;;23.00;43.10;;;;;;2476847;55;20960;-74
2023/06/18 07:14:06;;;;;;;4.87;3.75;;;23.20;43.10;;;;;;2252001;56;22238;-76
2023/06/18 07:16:33;;;;;;;5.18;3.17;;;23.20;43.30;;;;;;2464474;55;21028;-77
2023/06/18 07:19:01;;;;;;;4.70;3.50;;;23.30;43.20;;;;;;2250768;56;20952;-75
2023/06/18 07:21:27;;;;;;;4.87;3.33;;;23.50;43.30;;;;;;2453502;55;21074;-74
2023/06/18 07:23:54;;;;;;;5.03;3.33;;;23.50;43.10;;;;;;2229839;56;21548;-74
2023/06/18 07:26:20;;;;;;;4.78;3.45;;;23.60;43.00;;;;;;2478045;55;20945;-75
2023/06/18 07:28:48;;;;;;;4.37;3.20;;;23.70;42.90;;;;;;2477551;55;20949;-76
2023/06/18 07:31:17;;;;;;;5.10;3.70;;;23.80;43.00;;;;;;2478475;55;21468;-75
2023/06/18 07:33:44;;;;;;;4.82;3.60;;;23.90;43.10;;;;;;2477029;55;20949;-75
2023/06/18 07:36:11;;;;;;;5.82;3.58;;;23.90;43.00;;;;;;2474848;55;21006;-76
2023/06/18 07:38:40;;;;;;;5.30;3.33;;;24.10;42.90;;;;;;2461877;55;21472;-78
2023/06/18 07:41:09;;;;;;;5.22;3.58;;;24.20;42.80;;;;;;2438836;56;21077;-75
2023/06/18 07:43:36;;;;;;;4.95;3.70;;;24.30;42.80;;;;;;2474885;55;20944;-74
2023/06/18 07:46:05;;;;;;;4.80;3.72;;;24.40;42.70;;;;;;2477981;55;20949;-77
2023/06/18 07:48:31;;;;;;;4.78;3.25;;;24.60;42.90;;;;;;2478151;55;21052;-75
2023/06/18 07:51:01;;;;;;;5.55;3.85;;;24.70;43.10;;;;;;2477212;55;20965;-77
2023/06/18 07:53:27;;;;;;;5.32;3.80;;;24.80;43.10;;;;;;2252298;56;20960;-75
2023/06/18 07:55:54;;;;;;;5.28;3.55;;;24.80;43.10;;;;;;2477737;55;21067;-75
2023/06/18 07:58:20;;;;;;;5.37;3.80;;;25.00;43.10;;;;;;2478312;55;21020;-74
2023/06/18 08:00:56;;;;;;;4.97;3.40;;;25.10;42.90;;;;;;2477624;55;21033;-74
2023/06/18 08:03:23;;;;;;;5.43;3.08;;;25.10;42.60;;;;;;2466122;55;21501;-75
2023/06/18 08:05:52;;;;;;;5.28;3.72;;;25.10;42.50;;;;;;2467040;55;21059;-74
2023/06/18 08:08:19;;;;;;;4.40;3.28;;;25.40;42.30;;;;;;2471283;55;20993;-75
2023/06/18 08:10:45;;;;;;;4.07;3.05;;;25.50;42.10;;;;;;2477931;55;21005;-76
2023/06/18 08:13:12;;;;;;;4.35;2.95;;;25.60;41.90;;;;;;2252092;56;21878;-75
2023/06/18 08:15:39;;;;;;;4.25;3.08;;;25.70;41.70;;;;;;2477170;55;20957;-75
2023/06/18 08:18:09;;;;;;;4.93;3.12;;;25.70;41.60;;;;;;2478356;55;21052;-75
2023/06/18 08:20:36;;;;;;;4.53;3.00;;;25.90;41.60;;;;;;2477471;55;20968;-76
2023/06/18 08:23:03;;;;;;;5.32;3.55;;;26.00;41.50;;;;;;2477975;55;21004;-76
2023/06/18 08:25:29;;;;;;;6.07;3.90;;;26.10;41.60;;;;;;2251666;56;21079;-75
2023/06/18 08:27:58;;;;;;;8.40;3.72;;;26.10;41.80;;;;;;2476831;55;21096;-75
2023/06/18 08:30:25;;;;;;;5.32;3.42;;;26.30;41.80;;;;;;2478403;55;21024;-76
2023/06/18 08:32:56;;;;;;;4.32;3.25;;;26.40;41.70;;;;;;2477859;55;20956;-76
2023/06/18 08:35:23;;;;;;;4.78;3.53;;;26.50;41.60;;;;;;2478843;55;20933;-75
2023/06/18 08:37:50;;;;;;;4.35;3.42;;;26.60;41.60;;;;;;2230396;56;20966;-76
2023/06/18 08:40:16;;;;;;;4.87;3.22;;;26.70;41.50;;;;;;2448176;55;21349;-74
2023/06/18 08:42:44;;;;;;;7.62;3.60;;;26.70;41.30;;;;;;2457821;55;21743;-76
2023/06/18 08:45:20;;;;;;;5.70;3.90;;;26.90;41.40;;;;;;2479698;55;21008;-77
2023/06/18 08:47:48;;;;;;;6.72;3.85;;;27.00;41.50;;;;;;2478272;55;20989;-76
2023/06/18 08:50:15;;;;;;;4.70;3.47;;;27.10;41.30;;;;;;2252953;56;20976;-75
2023/06/18 08:52:41;;;;;;;4.80;3.28;;;27.20;41.10;;;;;;2254064;56;20945;-77
2023/06/18 08:55:13;;;;;;;5.05;4.00;;;27.20;40.90;;;;;;2480049;55;20977;-76
2023/06/18 08:57:51;;;;;;;4.68;3.83;;;27.40;40.90;;;;;;2479909;55;21044;-76
2023/06/18 09:00:19;;;;;;;4.25;3.35;;;27.50;40.80;;;;;;2479937;55;21060;-76
2023/06/18 09:02:46;;;;;;;4.18;3.05;;;27.50;40.50;;;;;;2478442;55;21056;-75
2023/06/18 09:05:13;;;;;;;5.47;3.50;;;27.60;40.30;;;;;;2479101;55;21060;-76
2023/06/18 09:07:39;;;;;;;4.78;3.78;;;27.70;40.20;;;;;;2479035;55;21060;-75
2023/06/18 09:10:07;;;;;;;4.32;3.30;;;27.80;40.70;;;;;;2479209;55;21012;-75
2023/06/18 09:12:39;;;;;;;5.45;3.25;;;27.90;39.90;;;;;;2465755;55;21011;-74
2023/06/18 09:15:06;;;;;;;4.30;3.10;;;28.00;39.80;;;;;;2477480;55;21529;-77
2023/06/18 09:17:38;;;;;;;4.75;3.33;;;28.10;39.90;;;;;;2479033;55;21536;-76
2023/06/18 09:20:05;;;;;;;4.73;3.50;;;28.10;40.00;;;;;;2464187;55;20963;-77
2023/06/18 09:22:45;;;;;;;4.10;2.97;;;28.20;39.90;;;;;;2479220;55;21553;-77
2023/06/18 09:25:26;;;;;;;5.25;3.78;;;28.30;39.80;;;;;;2252441;56;21004;-76
2023/06/18 09:28:00;;;;;;;4.85;3.35;;;28.40;40.00;;;;;;2478647;55;21934;-76
2023/06/18 09:30:27;;;;;;;5.05;3.37;;;28.50;39.80;;;;;;2479378;55;21036;-76
2023/06/18 09:32:57;;;;;;;4.62;3.35;;;28.60;39.60;;;;;;2251608;56;20975;-74
2023/06/18 09:35:25;;;;;;;5.13;3.40;;;28.70;39.40;;;;;;2479978;55;21670;-75
2023/06/18 09:37:51;;;;;;;4.45;3.30;;;28.80;39.40;;;;;;2478172;55;21082;-76
2023/06/18 09:40:21;;;;;;;4.82;3.30;;;28.80;39.30;;;;;;2479272;55;21465;-75
2023/06/18 09:42:51;;;;;;;5.03;3.33;;;28.90;39.30;;;;;;2251808;56;21001;-78
2023/06/18 09:45:18;;;;;;;4.82;3.10;;;29.00;39.20;;;;;;2478766;55;21588;-75
2023/06/18 09:47:48;;;;;;;4.93;3.25;;;29.10;39.00;;;;;;2478676;55;20981;-75
2023/06/18 09:50:15;;;;;;;4.37;2.78;;;29.20;38.80;;;;;;2478886;55;21451;-77
2023/06/18 09:52:45;;;;;;;4.22;2.83;;;29.30;38.90;;;;;;2478185;55;20984;-78
2023/06/18 09:55:28;;;;;;;4.25;3.03;;;29.40;38.80;;;;;;2245010;56;20963;-76
2023/06/18 09:57:55;;;;;;;4.68;2.90;;;29.50;38.60;;;;;;2478788;55;20941;-75
2023/06/18 10:00:21;;;;;;;3.90;3.05;;;29.60;38.50;;;;;;2478968;55;20924;-77
2023/06/18 10:02:51;;;;;;;3.87;2.78;;;29.60;38.20;;;;;;2478260;55;21017;-76
2023/06/18 10:05:18;;;;;;;4.55;2.97;;;29.70;38.00;;;;;;2252383;56;21024;-75
2023/06/18 10:07:46;;;;;;;5.10;3.17;;;29.80;37.70;;;;;;2478657;55;20988;-75
2023/06/18 10:10:15;;;;;;;4.18;2.78;;;29.90;37.20;;;;;;2478242;55;20993;-76
2023/06/18 10:12:49;;;;;;;4.20;2.58;;;30.00;36.90;;;;;;2478532;55;20976;-77
2023/06/18 10:15:16;;;;;;;4.03;2.80;;;30.00;36.80;;;;;;2478613;55;20929;-76
2023/06/18 10:17:51;;;;;;;4.10;2.62;;;30.10;36.80;;;;;;2478926;55;21074;-79
2023/06/18 10:20:19;;;;;;;3.95;2.80;;;30.20;36.40;;;;;;2479019;55;20960;-78
2023/06/18 10:22:48;;;;;;;4.35;2.92;;;30.30;36.50;;;;;;2252184;56;21040;-76
2023/06/18 10:25:14;;;;;;;4.00;2.85;;;30.30;36.40;;;;;;2250030;56;21400;-77
2023/06/18 10:27:43;;;;;;;4.25;2.92;;;30.40;36.30;;;;;;2469989;55;24104;-78
2023/06/18 10:30:11;;;;;;;4.00;2.87;;;30.50;36.00;;;;;;2251975;56;21040;-75
2023/06/18 10:32:42;;;;;;;4.20;2.90;;;30.60;36.00;;;;;;2478284;55;21005;-76
2023/06/18 10:35:09;;;;;;;4.35;2.67;;;30.70;36.00;;;;;;2251779;56;21703;-76
2023/06/18 10:37:45;;;;;;;4.25;3.03;;;30.80;36.00;;;;;;2470694;55;21019;-76
2023/06/18 10:40:16;;;;;;;4.50;3.35;;;30.90;35.60;;;;;;2466615;55;21024;-74
2023/06/18 10:42:48;;;;;;;5.03;3.70;;;31.00;35.30;;;;;;2460511;55;20959;-76
2023/06/18 10:45:16;;;;;;;5.15;3.35;;;31.10;34.70;;;;;;2437969;56;20977;-77
2023/06/18 10:47:48;;;;;;;4.55;3.10;;;31.20;34.80;;;;;;2475943;55;20989;-77
2023/06/18 10:50:23;;;;;;;3.60;2.55;;;31.30;34.50;;;;;;2439227;55;21910;-76
2023/06/18 10:52:51;;;;;;;3.78;2.17;;;31.40;34.30;;;;;;2477656;55;20921;-77
2023/06/18 10:55:38;;;;;;;3.60;2.40;;;31.50;33.90;;;;;;2452800;55;21070;-76
2023/06/18 10:58:07;;;;;;;3.10;2.00;;;31.60;33.10;;;;;;2463855;55;20969;-76
2023/06/18 11:00:41;;;;;;;4.15;2.80;;;31.60;33.20;;;;;;2478397;55;20933;-76
2023/06/18 11:03:16;;;;;;;3.03;2.00;;;31.70;33.20;;;;;;2463223;55;21624;-76
2023/06/18 11:05:49;;;;;;;3.30;2.28;;;31.80;32.50;;;;;;2476783;55;20965;-79
2023/06/18 11:08:26;;;;;;;3.20;2.10;;;31.90;33.40;;;;;;2460594;55;21424;-76
2023/06/18 11:11:04;;;;;;;3.85;2.42;;;32.00;32.50;;;;;;2251444;56;21809;-75
2023/06/18 11:13:36;;;;;;;3.20;2.10;;;32.10;32.60;;;;;;2478023;55;20921;-76
2023/06/18 11:16:12;;;;;;;3.20;1.85;;;32.10;32.40;;;;;;2478104;55;20940;-78
2023/06/18 11:18:42;;;;;;;3.00;1.98;;;32.20;31.60;;;;;;2252100;56;21413;-77
2023/06/18 11:21:17;;;;;;;3.17;1.98;;;32.30;31.70;;;;;;2477843;55;21024;-77
2023/06/18 11:23:43;;;;;;;3.78;1.77;;;32.30;31.40;;;;;;2478725;55;20985;-76
2023/06/18 11:26:14;;;;;;;3.47;2.12;;;32.40;31.60;;;;;;2478388;55;21452;-77
2023/06/18 11:28:40;;;;;;;3.72;2.00;;;32.50;31.20;;;;;;2252193;56;21394;-76
2023/06/18 11:31:07;;;;;;;3.40;2.05;;;32.60;31.20;;;;;;2478073;55;20952;-76
2023/06/18 11:33:35;;;;;;;5.55;2.30;;;32.70;31.40;;;;;;2252375;56;21116;-75
2023/06/18 11:36:21;;;;;;;4.37;2.45;;;32.70;31.20;;;;;;2249289;56;21017;-78
2023/06/18 11:38:51;;;;;;;3.60;2.60;;;32.80;31.00;;;;;;2252516;56;21395;-76
2023/06/18 11:41:21;;;;;;;3.53;2.42;;;32.90;31.20;;;;;;2477941;55;21095;-76
2023/06/18 11:43:49;;;;;;;4.22;2.50;;;32.90;31.20;;;;;;2478044;55;20965;-75
2023/06/18 11:46:34;;;;;;;3.53;2.05;;;33.00;30.90;;;;;;2477582;55;20976;-76
2023/06/18 11:49:13;;;;;;;3.03;2.20;;;33.10;30.40;;;;;;2477793;55;20955;-77
2023/06/18 11:51:40;;;;;;;3.60;2.42;;;33.10;30.90;;;;;;2461916;55;21019;-76
2023/06/18 11:54:06;;;;;;;4.07;2.40;;;33.20;30.40;;;;;;2472726;55;20952;-77
2023/06/18 11:56:34;;;;;;;3.30;2.08;;;33.30;30.10;;;;;;2478052;55;21293;-75
2023/06/18 11:59:02;;;;;;;3.50;2.12;;;33.30;30.00;;;;;;2478005;55;21020;-75
2023/06/18 12:01:31;;;;;;;3.33;2.12;;;33.40;29.70;;;;;;2478506;55;21898;-76
2023/06/18 12:04:04;;;;;;;4.62;2.42;;;33.50;29.50;;;;;;2477980;55;21410;-76
2023/06/18 12:06:31;;;;;;;8.98;2.47;;;33.50;29.20;;;;;;2478580;55;21012;-75
2023/06/18 12:09:05;;;;;;;3.78;2.33;;;33.60;29.50;;;;;;2251350;56;20937;-77
2023/06/18 12:18:26;;;;;;;3.60;2.22;;;33.60;29.00;;;;;;2478315;55;20957;-76
2023/06/18 12:20:56;;;;;;;2.78;1.60;;;33.80;29.40;;;;;;2478178;55;20984;-77
2023/06/18 12:23:22;;;;;;;3.72;1.98;;;33.90;29.10;;;;;;2468306;55;20995;-77
2023/06/18 12:25:49;;;;;;;3.20;1.77;;;33.90;28.80;;;;;;2463171;55;20960;-77
2023/06/18 12:28:15;;;;;;;3.90;1.92;;;34.00;29.00;;;;;;2473142;55;20984;-76
2023/06/18 12:30:45;;;;;;;3.90;2.00;;;34.10;29.10;;;;;;2478841;55;21044;-77
2023/06/18 12:33:13;;;;;;;3.67;2.30;;;34.10;29.00;;;;;;2251884;56;21438;-76
2023/06/18 12:35:45;;;;;;;4.15;2.42;;;34.10;29.00;;;;;;2251358;56;20945;-76
2023/06/18 12:38:16;;;;;;;4.15;2.20;;;34.10;29.10;;;;;;2476578;55;21005;-76
2023/06/18 12:40:58;;;;;;;3.95;2.30;;;34.20;28.70;;;;;;2476588;55;21028;-76
2023/06/18 12:43:24;;;;;;;2.90;1.80;;;34.20;28.20;;;;;;2477117;55;21088;-76
2023/06/18 12:45:51;;;;;;;3.30;2.17;;;34.30;28.40;;;;;;2477138;55;20925;-76
2023/06/18 12:48:24;;;;;;;3.80;2.45;;;34.30;28.60;;;;;;2476753;55;21092;-75
2023/06/18 12:50:52;;;;;;;3.22;1.83;;;34.30;28.30;;;;;;2476965;55;20989;-77
2023/06/18 12:53:26;;;;;;;4.60;2.58;;;34.40;28.20;;;;;;2476885;55;20993;-75
2023/06/18 12:56:46;;;;;;;3.87;2.60;;;34.40;28.20;;;;;;2477314;55;21032;-75
2023/06/18 12:59:17;;;;;;;3.85;2.40;;;34.40;27.90;;;;;;2250103;56;20977;-77
2023/06/18 13:01:47;;;;;;;3.00;1.83;;;34.40;28.30;;;;;;2477127;55;21032;-76
2023/06/18 13:04:16;;;;;;;3.58;2.15;;;34.50;28.70;;;;;;2477131;55;20948;-75